sensor_id;sensor_type;location;lat;lon;timestamp;temperature;humidity
10233;DHT22;5161;48.174;11.756;2023-10-08T00:00:04;18.30;44.20
10233;DHT22;5161;48.174;11.756;2023-10-08T00:02:50;18.30;44.30
10233;DHT22;5161;48.174;11.756;2023-10-08T00:05:15;18.40;44.40
10233;DHT22;5161;48.174;11.756;2023-10-08T00:07:42;18.30;44.30
10233;DHT22;5161;48.174;11.756;2023-10-08T00:10:09;18.30;44.30
10233;DHT22;5161;48.174;11.756;2023-10-08T00:12:34;18.30;44.30
10233;DHT22;5161;48.174;11.756;2023-10-08T00:15:00;18.40;44.40
10233;DHT22;5161;48.174;11.756;2023-10-08T00:17:26;18.40;44.50
10233;DHT22;5161;48.174;11.756;2023-10-08T00:19:51;18.40;44.50
10233;DHT22;5161;48.174;11.756;2023-10-08T00:22:18;18.40;44.70
10233;DHT22;5161;48.174;11.756;2023-10-08T00:24:47;18.40;44.80
10233;DHT22;5161;48.174;11.756;2023-10-08T00:27:17;18.40;44.80
10233;DHT22;5161;48.174;11.756;2023-10-08T00:29:43;18.40;44.80
10233;DHT22;5161;48.174;11.756;2023-10-08T00:32:09;18.40;44.90
10233;DHT22;5161;48.174;11.756;2023-10-08T00:34:39;18.40;45.00
10233;DHT22;5161;48.174;11.756;2023-10-08T00:37:11;18.40;45.10
10233;DHT22;5161;48.174;11.756;2023-10-08T00:39:40;18.40;45.20
10233;DHT22;5161;48.174;11.756;2023-10-08T00:42:06;18.40;45.20
10233;DHT22;5161;48.174;11.756;2023-10-08T00:44:36;18.50;45.30
10233;DHT22;5161;48.174;11.756;2023-10-08T00:47:22;18.50;45.30
10233;DHT22;5161;48.174;11.756;2023-10-08T00:49:55;18.50;45.30
10233;DHT22;5161;48.174;11.756;2023-10-08T00:52:33;18.50;45.50
10233;DHT22;5161;48.174;11.756;2023-10-08T00:55:08;18.50;45.50
10233;DHT22;5161;48.174;11.756;2023-10-08T00:57:35;18.50;45.40
10233;DHT22;5161;48.174;11.756;2023-10-08T01:00:05;18.50;45.40
10233;DHT22;5161;48.174;11.756;2023-10-08T01:02:42;18.50;45.50
10233;DHT22;5161;48.174;11.756;2023-10-08T01:05:21;18.60;45.70
10233;DHT22;5161;48.174;11.756;2023-10-08T01:08:02;18.60;45.80
10233;DHT22;5161;48.174;11.756;2023-10-08T01:10:38;18.60;45.70
10233;DHT22;5161;48.174;11.756;2023-10-08T01:13:05;18.60;45.70
10233;DHT22;5161;48.174;11.756;2023-10-08T01:15:36;18.60;45.70
10233;DHT22;5161;48.174;11.756;2023-10-08T01:18:03;18.60;45.80
10233;DHT22;5161;48.174;11.756;2023-10-08T01:20:31;18.60;45.70
10233;DHT22;5161;48.174;11.756;2023-10-08T01:23:07;18.60;45.80
10233;DHT22;5161;48.174;11.756;2023-10-08T01:25:41;18.70;45.90
10233;DHT22;5161;48.174;11.756;2023-10-08T01:28:10;18.70;45.90
10233;DHT22;5161;48.174;11.756;2023-10-08T01:30:59;18.70;45.90
10233;DHT22;5161;48.174;11.756;2023-10-08T01:33:28;18.70;45.90
10233;DHT22;5161;48.174;11.756;2023-10-08T01:36:03;18.70;45.90
10233;DHT22;5161;48.174;11.756;2023-10-08T01:38:31;18.70;45.90
10233;DHT22;5161;48.174;11.756;2023-10-08T01:40:57;18.70;45.80
10233;DHT22;5161;48.174;11.756;2023-10-08T01:43:28;18.70;45.80
10233;DHT22;5161;48.174;11.756;2023-10-08T01:45:57;18.70;45.70
10233;DHT22;5161;48.174;11.756;2023-10-08T01:48:26;18.70;45.80
10233;DHT22;5161;48.174;11.756;2023-10-08T01:51:00;18.70;45.70
10233;DHT22;5161;48.174;11.756;2023-10-08T01:53:27;18.70;45.60
10233;DHT22;5161;48.174;11.756;2023-10-08T01:55:53;18.70;45.60
10233;DHT22;5161;48.174;11.756;2023-10-08T01:58:21;18.70;45.10
10233;DHT22;5161;48.174;11.756;2023-10-08T02:00:48;18.70;45.30
10233;DHT22;5161;48.174;11.756;2023-10-08T02:03:17;18.80;45.10
10233;DHT22;5161;48.174;11.756;2023-10-08T02:05:48;18.80;45.30
10233;DHT22;5161;48.174;11.756;2023-10-08T02:08:14;18.80;45.00
10233;DHT22;5161;48.174;11.756;2023-10-08T02:10:42;18.80;45.00
10233;DHT22;5161;48.174;11.756;2023-10-08T02:13:12;18.80;45.00
10233;DHT22;5161;48.174;11.756;2023-10-08T02:15:44;18.80;45.00
10233;DHT22;5161;48.174;11.756;2023-10-08T02:18:10;18.80;45.00
10233;DHT22;5161;48.174;11.756;2023-10-08T02:20:36;18.80;44.80
10233;DHT22;5161;48.174;11.756;2023-10-08T02:23:02;18.80;44.90
10233;DHT22;5161;48.174;11.756;2023-10-08T02:25:31;18.80;44.80
10233;DHT22;5161;48.174;11.756;2023-10-08T02:27:56;18.80;44.70
10233;DHT22;5161;48.174;11.756;2023-10-08T02:30:26;18.80;44.80
10233;DHT22;5161;48.174;11.756;2023-10-08T02:32:52;18.90;44.70
10233;DHT22;5161;48.174;11.756;2023-10-08T02:35:18;18.90;44.70
10233;DHT22;5161;48.174;11.756;2023-10-08T02:37:44;18.90;44.80
10233;DHT22;5161;48.174;11.756;2023-10-08T02:40:11;18.90;44.70
10233;DHT22;5161;48.174;11.756;2023-10-08T02:42:53;18.90;44.80
10233;DHT22;5161;48.174;11.756;2023-10-08T02:45:27;18.90;44.70
10233;DHT22;5161;48.174;11.756;2023-10-08T02:47:54;18.90;44.80
10233;DHT22;5161;48.174;11.756;2023-10-08T02:50:22;18.90;44.60
10233;DHT22;5161;48.174;11.756;2023-10-08T02:52:51;18.90;44.60
10233;DHT22;5161;48.174;11.756;2023-10-08T02:55:19;18.90;44.60
10233;DHT22;5161;48.174;11.756;2023-10-08T02:58:02;18.90;44.80
10233;DHT22;5161;48.174;11.756;2023-10-08T03:00:31;18.90;44.60
10233;DHT22;5161;48.174;11.756;2023-10-08T03:03:01;18.90;44.50
10233;DHT22;5161;48.174;11.756;2023-10-08T03:05:49;18.90;44.60
10233;DHT22;5161;48.174;11.756;2023-10-08T03:08:17;18.90;44.50
10233;DHT22;5161;48.174;11.756;2023-10-08T03:10:47;18.90;44.50
10233;DHT22;5161;48.174;11.756;2023-10-08T03:13:21;18.90;44.70
10233;DHT22;5161;48.174;11.756;2023-10-08T03:15:47;18.90;44.70
10233;DHT22;5161;48.174;11.756;2023-10-08T03:18:32;18.90;44.70
10233;DHT22;5161;48.174;11.756;2023-10-08T03:21:06;18.90;44.80
10233;DHT22;5161;48.174;11.756;2023-10-08T03:23:49;18.90;44.90
10233;DHT22;5161;48.174;11.756;2023-10-08T03:26:16;18.90;44.90
10233;DHT22;5161;48.174;11.756;2023-10-08T03:28:54;18.90;44.80
10233;DHT22;5161;48.174;11.756;2023-10-08T03:31:23;18.90;44.80
10233;DHT22;5161;48.174;11.756;2023-10-08T03:34:12;18.90;44.80
10233;DHT22;5161;48.174;11.756;2023-10-08T03:36:39;18.90;44.90
10233;DHT22;5161;48.174;11.756;2023-10-08T03:39:13;18.90;45.00
10233;DHT22;5161;48.174;11.756;2023-10-08T03:41:43;18.90;44.90
10233;DHT22;5161;48.174;11.756;2023-10-08T03:44:17;18.90;44.90
10233;DHT22;5161;48.174;11.756;2023-10-08T03:46:43;18.90;45.00
10233;DHT22;5161;48.174;11.756;2023-10-08T03:49:09;18.90;45.00
10233;DHT22;5161;48.174;11.756;2023-10-08T03:51:48;18.90;45.10
10233;DHT22;5161;48.174;11.756;2023-10-08T03:54:20;18.90;45.10
10233;DHT22;5161;48.174;11.756;2023-10-08T03:56:55;18.90;45.20
10233;DHT22;5161;48.174;11.756;2023-10-08T03:59:21;18.90;45.20
10233;DHT22;5161;48.174;11.756;2023-10-08T04:02:04;19.00;45.60
10233;DHT22;5161;48.174;11.756;2023-10-08T04:04:43;18.90;45.80
10233;DHT22;5161;48.174;11.756;2023-10-08T04:07:22;18.90;45.20
10233;DHT22;5161;48.174;11.756;2023-10-08T04:09:57;18.90;45.30
10233;DHT22;5161;48.174;11.756;2023-10-08T04:12:39;18.90;45.90
10233;DHT22;5161;48.174;11.756;2023-10-08T04:15:16;18.90;45.40
10233;DHT22;5161;48.174;11.756;2023-10-08T04:17:42;19.00;45.30
10233;DHT22;5161;48.174;11.756;2023-10-08T04:20:15;19.00;46.00
10233;DHT22;5161;48.174;11.756;2023-10-08T04:23:00;19.00;45.40
10233;DHT22;5161;48.174;11.756;2023-10-08T04:25:26;18.90;45.30
10233;DHT22;5161;48.174;11.756;2023-10-08T04:27:54;18.90;45.30
10233;DHT22;5161;48.174;11.756;2023-10-08T04:30:20;19.00;45.40
10233;DHT22;5161;48.174;11.756;2023-10-08T04:32:48;18.90;45.20
10233;DHT22;5161;48.174;11.756;2023-10-08T04:35:18;19.00;45.30
10233;DHT22;5161;48.174;11.756;2023-10-08T04:37:45;19.00;45.30
10233;DHT22;5161;48.174;11.756;2023-10-08T04:40:16;18.90;45.10
10233;DHT22;5161;48.174;11.756;2023-10-08T04:42:42;18.90;45.10
10233;DHT22;5161;48.174;11.756;2023-10-08T04:45:11;18.90;45.10
10233;DHT22;5161;48.174;11.756;2023-10-08T04:47:42;18.90;45.20
10233;DHT22;5161;48.174;11.756;2023-10-08T04:50:11;18.90;45.20
10233;DHT22;5161;48.174;11.756;2023-10-08T04:52:43;18.90;45.30
10233;DHT22;5161;48.174;11.756;2023-10-08T04:55:21;18.90;45.30
10233;DHT22;5161;48.174;11.756;2023-10-08T04:57:54;19.00;45.10
10233;DHT22;5161;48.174;11.756;2023-10-08T05:00:21;18.90;45.10
10233;DHT22;5161;48.174;11.756;2023-10-08T05:03:06;18.90;45.00
10233;DHT22;5161;48.174;11.756;2023-10-08T05:05:40;18.90;45.10
10233;DHT22;5161;48.174;11.756;2023-10-08T05:08:25;18.90;45.10
10233;DHT22;5161;48.174;11.756;2023-10-08T05:10:58;18.90;45.50
10233;DHT22;5161;48.174;11.756;2023-10-08T05:13:36;19.00;45.70
10233;DHT22;5161;48.174;11.756;2023-10-08T05:16:10;18.90;45.00
10233;DHT22;5161;48.174;11.756;2023-10-08T05:18:58;18.90;46.20
10233;DHT22;5161;48.174;11.756;2023-10-08T05:21:50;18.90;45.60
10233;DHT22;5161;48.174;11.756;2023-10-08T05:24:31;18.90;45.10
10233;DHT22;5161;48.174;11.756;2023-10-08T05:27:04;18.90;45.10
10233;DHT22;5161;48.174;11.756;2023-10-08T05:29:48;18.90;45.20
10233;DHT22;5161;48.174;11.756;2023-10-08T05:32:39;18.90;46.10
10233;DHT22;5161;48.174;11.756;2023-10-08T05:35:23;18.90;46.20
10233;DHT22;5161;48.174;11.756;2023-10-08T05:38:07;18.90;46.40
10233;DHT22;5161;48.174;11.756;2023-10-08T05:40:45;18.80;46.10
10233;DHT22;5161;48.174;11.756;2023-10-08T05:43:39;18.80;46.60
10233;DHT22;5161;48.174;11.756;2023-10-08T05:46:06;18.80;45.90
10233;DHT22;5161;48.174;11.756;2023-10-08T05:49:07;18.80;45.90
10233;DHT22;5161;48.174;11.756;2023-10-08T05:51:34;18.80;45.80
10233;DHT22;5161;48.174;11.756;2023-10-08T05:54:22;18.80;45.70
10233;DHT22;5161;48.174;11.756;2023-10-08T05:56:58;18.80;45.80
10233;DHT22;5161;48.174;11.756;2023-10-08T05:59:40;18.70;45.60
10233;DHT22;5161;48.174;11.756;2023-10-08T06:02:38;18.70;45.80
10233;DHT22;5161;48.174;11.756;2023-10-08T06:05:06;18.60;45.50
10233;DHT22;5161;48.174;11.756;2023-10-08T06:07:37;18.60;45.40
10233;DHT22;5161;48.174;11.756;2023-10-08T06:10:16;18.60;45.50
10233;DHT22;5161;48.174;11.756;2023-10-08T06:15:49;18.60;46.30
10233;DHT22;5161;48.174;11.756;2023-10-08T06:18:15;18.70;45.70
10233;DHT22;5161;48.174;11.756;2023-10-08T06:20:43;18.70;45.80
10233;DHT22;5161;48.174;11.756;2023-10-08T06:23:15;18.70;45.80
10233;DHT22;5161;48.174;11.756;2023-10-08T06:25:44;18.70;45.90
10233;DHT22;5161;48.174;11.756;2023-10-08T06:28:17;18.70;46.00
10233;DHT22;5161;48.174;11.756;2023-10-08T06:30:50;18.70;46.10
10233;DHT22;5161;48.174;11.756;2023-10-08T06:33:19;18.70;46.20
10233;DHT22;5161;48.174;11.756;2023-10-08T06:35:50;18.60;46.20
10233;DHT22;5161;48.174;11.756;2023-10-08T06:38:33;18.60;46.30
10233;DHT22;5161;48.174;11.756;2023-10-08T06:41:03;18.60;46.60
10233;DHT22;5161;48.174;11.756;2023-10-08T06:43:49;18.50;46.80
10233;DHT22;5161;48.174;11.756;2023-10-08T06:46:17;18.50;47.10
10233;DHT22;5161;48.174;11.756;2023-10-08T06:48:47;18.50;46.90
10233;DHT22;5161;48.174;11.756;2023-10-08T06:51:15;18.50;46.90
10233;DHT22;5161;48.174;11.756;2023-10-08T06:53:44;18.50;46.60
10233;DHT22;5161;48.174;11.756;2023-10-08T06:56:16;18.60;46.90
10233;DHT22;5161;48.174;11.756;2023-10-08T06:58:44;18.60;46.80
10233;DHT22;5161;48.174;11.756;2023-10-08T07:01:31;18.60;46.70
10233;DHT22;5161;48.174;11.756;2023-10-08T07:04:06;18.70;46.80
10233;DHT22;5161;48.174;11.756;2023-10-08T07:06:43;18.70;46.90
10233;DHT22;5161;48.174;11.756;2023-10-08T07:09:10;18.70;47.00
10233;DHT22;5161;48.174;11.756;2023-10-08T07:11:51;18.70;46.90
10233;DHT22;5161;48.174;11.756;2023-10-08T07:14:21;18.70;46.90
10233;DHT22;5161;48.174;11.756;2023-10-08T07:16:48;18.70;47.10
10233;DHT22;5161;48.174;11.756;2023-10-08T07:19:17;18.70;47.20
10233;DHT22;5161;48.174;11.756;2023-10-08T07:21:45;18.70;47.20
10233;DHT22;5161;48.174;11.756;2023-10-08T07:24:14;18.80;47.40
10233;DHT22;5161;48.174;11.756;2023-10-08T07:26:47;18.80;47.50
10233;DHT22;5161;48.174;11.756;2023-10-08T07:29:14;18.80;47.70
10233;DHT22;5161;48.174;11.756;2023-10-08T07:31:45;18.80;47.50
10233;DHT22;5161;48.174;11.756;2023-10-08T07:34:15;18.80;47.80
10233;DHT22;5161;48.174;11.756;2023-10-08T07:36:42;18.80;47.60
10233;DHT22;5161;48.174;11.756;2023-10-08T07:39:09;18.80;47.70
10233;DHT22;5161;48.174;11.756;2023-10-08T07:41:51;18.90;47.70
10233;DHT22;5161;48.174;11.756;2023-10-08T07:44:17;18.90;47.90
10233;DHT22;5161;48.174;11.756;2023-10-08T07:46:49;18.90;47.90
10233;DHT22;5161;48.174;11.756;2023-10-08T07:49:16;19.00;48.30
10233;DHT22;5161;48.174;11.756;2023-10-08T07:51:43;19.00;48.20
10233;DHT22;5161;48.174;11.756;2023-10-08T07:54:17;19.00;48.40
10233;DHT22;5161;48.174;11.756;2023-10-08T07:56:45;19.00;48.50
10233;DHT22;5161;48.174;11.756;2023-10-08T07:59:10;19.00;48.30
10233;DHT22;5161;48.174;11.756;2023-10-08T08:01:40;19.00;48.40
10233;DHT22;5161;48.174;11.756;2023-10-08T08:04:09;19.00;48.50
10233;DHT22;5161;48.174;11.756;2023-10-08T08:06:37;19.10;48.60
10233;DHT22;5161;48.174;11.756;2023-10-08T08:09:02;19.10;48.60
10233;DHT22;5161;48.174;11.756;2023-10-08T08:11:33;19.10;48.80
10233;DHT22;5161;48.174;11.756;2023-10-08T08:14:02;19.10;48.80
10233;DHT22;5161;48.174;11.756;2023-10-08T08:16:33;19.10;48.70
10233;DHT22;5161;48.174;11.756;2023-10-08T08:19:02;19.10;48.80
10233;DHT22;5161;48.174;11.756;2023-10-08T08:21:27;19.10;48.90
10233;DHT22;5161;48.174;11.756;2023-10-08T08:23:56;19.20;49.00
10233;DHT22;5161;48.174;11.756;2023-10-08T08:26:30;19.20;49.30
10233;DHT22;5161;48.174;11.756;2023-10-08T08:29:05;19.10;49.00
10233;DHT22;5161;48.174;11.756;2023-10-08T08:31:35;19.20;49.10
10233;DHT22;5161;48.174;11.756;2023-10-08T08:34:02;19.20;49.40
10233;DHT22;5161;48.174;11.756;2023-10-08T08:36:39;19.20;49.70
10233;DHT22;5161;48.174;11.756;2023-10-08T08:39:11;19.20;49.30
10233;DHT22;5161;48.174;11.756;2023-10-08T08:41:43;19.20;49.40
10233;DHT22;5161;48.174;11.756;2023-10-08T08:44:09;19.20;49.50
10233;DHT22;5161;48.174;11.756;2023-10-08T08:46:36;19.20;49.50
10233;DHT22;5161;48.174;11.756;2023-10-08T08:49:05;19.20;49.50
10233;DHT22;5161;48.174;11.756;2023-10-08T08:51:33;19.20;49.90
10233;DHT22;5161;48.174;11.756;2023-10-08T08:54:00;19.20;50.00
10233;DHT22;5161;48.174;11.756;2023-10-08T08:56:33;19.20;49.90
10233;DHT22;5161;48.174;11.756;2023-10-08T08:59:00;19.20;50.20
10233;DHT22;5161;48.174;11.756;2023-10-08T09:01:27;19.10;49.80
10233;DHT22;5161;48.174;11.756;2023-10-08T09:04:01;19.20;50.30
10233;DHT22;5161;48.174;11.756;2023-10-08T09:06:27;19.10;50.10
10233;DHT22;5161;48.174;11.756;2023-10-08T09:08:53;19.10;50.10
10233;DHT22;5161;48.174;11.756;2023-10-08T09:11:21;19.20;50.00
10233;DHT22;5161;48.174;11.756;2023-10-08T09:13:47;19.20;50.20
10233;DHT22;5161;48.174;11.756;2023-10-08T09:16:15;19.20;50.20
10233;DHT22;5161;48.174;11.756;2023-10-08T09:18:42;19.20;50.00
10233;DHT22;5161;48.174;11.756;2023-10-08T09:21:14;19.20;50.00
10233;DHT22;5161;48.174;11.756;2023-10-08T09:23:41;19.30;50.20
10233;DHT22;5161;48.174;11.756;2023-10-08T09:26:13;19.30;50.10
10233;DHT22;5161;48.174;11.756;2023-10-08T09:28:44;19.30;50.20
10233;DHT22;5161;48.174;11.756;2023-10-08T09:31:12;19.30;50.40
10233;DHT22;5161;48.174;11.756;2023-10-08T09:33:38;19.30;50.40
10233;DHT22;5161;48.174;11.756;2023-10-08T09:36:04;19.30;50.50
10233;DHT22;5161;48.174;11.756;2023-10-08T09:38:30;19.30;50.60
10233;DHT22;5161;48.174;11.756;2023-10-08T09:40:57;19.30;50.70
10233;DHT22;5161;48.174;11.756;2023-10-08T09:43:23;19.40;50.80
10233;DHT22;5161;48.174;11.756;2023-10-08T09:45:57;19.40;50.90
10233;DHT22;5161;48.174;11.756;2023-10-08T09:48:26;19.40;51.00
10233;DHT22;5161;48.174;11.756;2023-10-08T09:50:58;19.40;51.10
10233;DHT22;5161;48.174;11.756;2023-10-08T09:53:36;19.50;51.40
10233;DHT22;5161;48.174;11.756;2023-10-08T09:56:13;19.50;51.80
10233;DHT22;5161;48.174;11.756;2023-10-08T09:58:41;19.50;51.50
10233;DHT22;5161;48.174;11.756;2023-10-08T10:01:08;19.50;51.50
10233;DHT22;5161;48.174;11.756;2023-10-08T10:03:35;19.50;51.50
10233;DHT22;5161;48.174;11.756;2023-10-08T10:06:01;19.60;52.20
10233;DHT22;5161;48.174;11.756;2023-10-08T10:08:27;19.60;51.80
10233;DHT22;5161;48.174;11.756;2023-10-08T10:11:01;19.60;51.70
10233;DHT22;5161;48.174;11.756;2023-10-08T10:13:38;19.60;51.70
10233;DHT22;5161;48.174;11.756;2023-10-08T10:16:04;19.60;51.90
10233;DHT22;5161;48.174;11.756;2023-10-08T10:18:33;19.60;51.70
10233;DHT22;5161;48.174;11.756;2023-10-08T10:23:39;19.60;52.00
10233;DHT22;5161;48.174;11.756;2023-10-08T10:31:55;19.70;52.10
10233;DHT22;5161;48.174;11.756;2023-10-08T10:34:26;19.60;52.10
10233;DHT22;5161;48.174;11.756;2023-10-08T10:36:53;19.60;52.10
10233;DHT22;5161;48.174;11.756;2023-10-08T10:39:25;19.60;52.20
10233;DHT22;5161;48.174;11.756;2023-10-08T10:41:58;19.60;52.20
10233;DHT22;5161;48.174;11.756;2023-10-08T10:44:27;19.60;52.30
10233;DHT22;5161;48.174;11.756;2023-10-08T10:46:55;19.60;52.20
10233;DHT22;5161;48.174;11.756;2023-10-08T10:49:40;19.60;52.10
10233;DHT22;5161;48.174;11.756;2023-10-08T10:52:15;19.60;52.10
10233;DHT22;5161;48.174;11.756;2023-10-08T10:55:01;19.60;52.20
10233;DHT22;5161;48.174;11.756;2023-10-08T10:58:03;19.60;52.20
10233;DHT22;5161;48.174;11.756;2023-10-08T11:00:36;19.60;52.30
10233;DHT22;5161;48.174;11.756;2023-10-08T11:03:03;19.60;52.40
10233;DHT22;5161;48.174;11.756;2023-10-08T11:05:36;19.60;52.30
10233;DHT22;5161;48.174;11.756;2023-10-08T11:08:05;19.70;52.70
10233;DHT22;5161;48.174;11.756;2023-10-08T11:10:39;19.60;52.70
10233;DHT22;5161;48.174;11.756;2023-10-08T11:13:06;19.60;52.80
10233;DHT22;5161;48.174;11.756;2023-10-08T11:15:40;19.60;53.10
10233;DHT22;5161;48.174;11.756;2023-10-08T11:18:13;19.60;52.80
10233;DHT22;5161;48.174;11.756;2023-10-08T11:20:41;19.70;52.90
10233;DHT22;5161;48.174;11.756;2023-10-08T11:23:10;19.60;52.90
10233;DHT22;5161;48.174;11.756;2023-10-08T11:25:55;19.60;52.80
10233;DHT22;5161;48.174;11.756;2023-10-08T11:28:20;19.60;52.90
10233;DHT22;5161;48.174;11.756;2023-10-08T11:30:48;19.60;53.10
10233;DHT22;5161;48.174;11.756;2023-10-08T11:33:17;19.70;53.10
10233;DHT22;5161;48.174;11.756;2023-10-08T11:36:00;19.70;53.30
10233;DHT22;5161;48.174;11.756;2023-10-08T11:38:26;19.70;53.40
10233;DHT22;5161;48.174;11.756;2023-10-08T11:40:55;19.70;53.10
10233;DHT22;5161;48.174;11.756;2023-10-08T11:43:24;19.70;53.10
10233;DHT22;5161;48.174;11.756;2023-10-08T11:45:51;19.70;53.20
10233;DHT22;5161;48.174;11.756;2023-10-08T11:48:17;19.70;53.30
10233;DHT22;5161;48.174;11.756;2023-10-08T11:50:54;19.70;53.30
10233;DHT22;5161;48.174;11.756;2023-10-08T11:53:23;19.70;53.60
10233;DHT22;5161;48.174;11.756;2023-10-08T11:55:50;19.70;53.30
10233;DHT22;5161;48.174;11.756;2023-10-08T11:58:19;19.80;53.40
10233;DHT22;5161;48.174;11.756;2023-10-08T12:00:47;19.80;53.70
10233;DHT22;5161;48.174;11.756;2023-10-08T12:03:18;19.80;53.50
10233;DHT22;5161;48.174;11.756;2023-10-08T12:05:47;19.80;53.40
10233;DHT22;5161;48.174;11.756;2023-10-08T12:08:18;19.80;53.60
10233;DHT22;5161;48.174;11.756;2023-10-08T12:10:46;19.80;53.40
10233;DHT22;5161;48.174;11.756;2023-10-08T12:13:13;19.80;53.50
10233;DHT22;5161;48.174;11.756;2023-10-08T12:15:39;19.80;53.60
10233;DHT22;5161;48.174;11.756;2023-10-08T12:18:07;19.80;53.70
10233;DHT22;5161;48.174;11.756;2023-10-08T12:20:41;19.80;53.70
10233;DHT22;5161;48.174;11.756;2023-10-08T12:23:11;19.80;53.80
10233;DHT22;5161;48.174;11.756;2023-10-08T12:25:44;19.80;53.80
10233;DHT22;5161;48.174;11.756;2023-10-08T12:28:17;19.80;53.70
10233;DHT22;5161;48.174;11.756;2023-10-08T12:30:44;19.80;53.70
10233;DHT22;5161;48.174;11.756;2023-10-08T12:33:10;19.80;53.90
10233;DHT22;5161;48.174;11.756;2023-10-08T12:35:39;19.80;53.80
10233;DHT22;5161;48.174;11.756;2023-10-08T12:38:05;19.80;53.90
10233;DHT22;5161;48.174;11.756;2023-10-08T12:40:31;19.80;53.90
10233;DHT22;5161;48.174;11.756;2023-10-08T12:43:08;19.80;54.00
10233;DHT22;5161;48.174;11.756;2023-10-08T12:45:33;19.80;54.20
10233;DHT22;5161;48.174;11.756;2023-10-08T12:48:03;19.80;54.10
10233;DHT22;5161;48.174;11.756;2023-10-08T12:50:28;19.80;54.10
10233;DHT22;5161;48.174;11.756;2023-10-08T12:53:11;19.80;53.50
10233;DHT22;5161;48.174;11.756;2023-10-08T12:55:40;19.80;54.20
10233;DHT22;5161;48.174;11.756;2023-10-08T12:58:09;19.80;54.00
10233;DHT22;5161;48.174;11.756;2023-10-08T13:00:38;19.80;54.30
10233;DHT22;5161;48.174;11.756;2023-10-08T13:03:04;19.80;54.20
10233;DHT22;5161;48.174;11.756;2023-10-08T13:05:41;19.90;54.20
10233;DHT22;5161;48.174;11.756;2023-10-08T13:08:10;19.90;54.20
10233;DHT22;5161;48.174;11.756;2023-10-08T13:10:41;19.90;54.30
10233;DHT22;5161;48.174;11.756;2023-10-08T13:13:10;19.90;54.30
10233;DHT22;5161;48.174;11.756;2023-10-08T13:15:36;19.90;54.40
10233;DHT22;5161;48.174;11.756;2023-10-08T13:18:02;19.90;54.30
10233;DHT22;5161;48.174;11.756;2023-10-08T13:20:30;19.90;54.10
10233;DHT22;5161;48.174;11.756;2023-10-08T13:23:00;19.90;54.20
10233;DHT22;5161;48.174;11.756;2023-10-08T13:25:26;19.90;54.30
10233;DHT22;5161;48.174;11.756;2023-10-08T13:27:52;19.90;54.30
10233;DHT22;5161;48.174;11.756;2023-10-08T13:30:19;20.00;54.30
10233;DHT22;5161;48.174;11.756;2023-10-08T13:32:46;20.00;54.30
10233;DHT22;5161;48.174;11.756;2023-10-08T13:35:11;20.00;54.40
10233;DHT22;5161;48.174;11.756;2023-10-08T13:37:37;20.00;54.40
10233;DHT22;5161;48.174;11.756;2023-10-08T13:40:03;20.00;54.40
10233;DHT22;5161;48.174;11.756;2023-10-08T13:42:29;20.00;54.50
10233;DHT22;5161;48.174;11.756;2023-10-08T13:44:55;20.10;54.70
10233;DHT22;5161;48.174;11.756;2023-10-08T13:47:25;20.10;54.60
10233;DHT22;5161;48.174;11.756;2023-10-08T13:49:54;20.10;54.60
10233;DHT22;5161;48.174;11.756;2023-10-08T13:52:23;20.10;54.80
10233;DHT22;5161;48.174;11.756;2023-10-08T13:54:54;20.10;54.80
10233;DHT22;5161;48.174;11.756;2023-10-08T13:57:20;20.10;54.70
10233;DHT22;5161;48.174;11.756;2023-10-08T13:59:48;20.10;55.30
10233;DHT22;5161;48.174;11.756;2023-10-08T14:02:14;20.10;54.80
10233;DHT22;5161;48.174;11.756;2023-10-08T14:04:44;20.10;54.80
10233;DHT22;5161;48.174;11.756;2023-10-08T14:07:10;20.10;54.90
10233;DHT22;5161;48.174;11.756;2023-10-08T14:09:42;20.10;54.80
10233;DHT22;5161;48.174;11.756;2023-10-08T14:12:08;20.10;54.90
10233;DHT22;5161;48.174;11.756;2023-10-08T14:14:35;20.10;54.90
10233;DHT22;5161;48.174;11.756;2023-10-08T14:17:02;20.10;55.00
10233;DHT22;5161;48.174;11.756;2023-10-08T14:19:40;20.10;55.10
10233;DHT22;5161;48.174;11.756;2023-10-08T14:22:15;20.10;55.30
10233;DHT22;5161;48.174;11.756;2023-10-08T14:24:40;20.10;55.60
10233;DHT22;5161;48.174;11.756;2023-10-08T14:27:06;20.10;55.30
10233;DHT22;5161;48.174;11.756;2023-10-08T14:29:41;20.10;55.40
10233;DHT22;5161;48.174;11.756;2023-10-08T14:32:09;20.10;55.30
10233;DHT22;5161;48.174;11.756;2023-10-08T14:34:38;20.10;55.40
10233;DHT22;5161;48.174;11.756;2023-10-08T14:37:13;20.10;55.70
10233;DHT22;5161;48.174;11.756;2023-10-08T14:39:58;20.10;55.70
10233;DHT22;5161;48.174;11.756;2023-10-08T14:42:42;20.10;55.70
10233;DHT22;5161;48.174;11.756;2023-10-08T14:45:34;20.10;55.90
10233;DHT22;5161;48.174;11.756;2023-10-08T14:48:04;20.10;55.80
10233;DHT22;5161;48.174;11.756;2023-10-08T14:50:36;20.10;55.80
10233;DHT22;5161;48.174;11.756;2023-10-08T14:53:04;20.10;55.90
10233;DHT22;5161;48.174;11.756;2023-10-08T14:55:31;20.10;55.90
10233;DHT22;5161;48.174;11.756;2023-10-08T14:57:59;20.10;56.00
10233;DHT22;5161;48.174;11.756;2023-10-08T15:00:31;20.10;56.00
10233;DHT22;5161;48.174;11.756;2023-10-08T15:02:57;20.10;55.90
10233;DHT22;5161;48.174;11.756;2023-10-08T15:05:28;20.10;56.10
10233;DHT22;5161;48.174;11.756;2023-10-08T15:07:54;20.10;56.10
10233;DHT22;5161;48.174;11.756;2023-10-08T15:10:20;20.10;56.10
10233;DHT22;5161;48.174;11.756;2023-10-08T15:12:49;20.10;56.20
10233;DHT22;5161;48.174;11.756;2023-10-08T15:15:15;20.10;56.20
10233;DHT22;5161;48.174;11.756;2023-10-08T15:17:42;20.10;56.30
10233;DHT22;5161;48.174;11.756;2023-10-08T15:20:12;20.10;56.30
10233;DHT22;5161;48.174;11.756;2023-10-08T15:22:43;20.10;56.30
10233;DHT22;5161;48.174;11.756;2023-10-08T15:25:10;20.10;56.50
10233;DHT22;5161;48.174;11.756;2023-10-08T15:27:37;20.00;56.50
10233;DHT22;5161;48.174;11.756;2023-10-08T15:30:12;20.00;56.60
10233;DHT22;5161;48.174;11.756;2023-10-08T15:32:41;20.00;56.50
10233;DHT22;5161;48.174;11.756;2023-10-08T15:35:10;20.00;56.60
10233;DHT22;5161;48.174;11.756;2023-10-08T15:37:36;20.00;56.70
10233;DHT22;5161;48.174;11.756;2023-10-08T15:40:06;20.00;56.70
10233;DHT22;5161;48.174;11.756;2023-10-08T15:42:33;20.00;56.80
10233;DHT22;5161;48.174;11.756;2023-10-08T15:45:01;20.00;56.80
10233;DHT22;5161;48.174;11.756;2023-10-08T15:47:27;20.00;56.80
10233;DHT22;5161;48.174;11.756;2023-10-08T15:49:53;20.00;56.80
10233;DHT22;5161;48.174;11.756;2023-10-08T15:52:19;20.00;57.20
10233;DHT22;5161;48.174;11.756;2023-10-08T15:54:48;20.00;56.90
10233;DHT22;5161;48.174;11.756;2023-10-08T15:57:15;20.00;57.00
10233;DHT22;5161;48.174;11.756;2023-10-08T15:59:40;20.00;57.10
10233;DHT22;5161;48.174;11.756;2023-10-08T16:02:06;20.00;57.50
10233;DHT22;5161;48.174;11.756;2023-10-08T16:04:32;20.00;57.60